Delta Lindsey — WDF5519 — position and weather

sailwx.info

Track history (hours):
 
Tides and Currents Weather Stations Pressure Air Temp Water Temp Dewpoint Dewpoint Depression Visibility Wind Speed Wind Dir Waves Ship Positions

Delta Lindsey

Owner: Baydelta Navigation, Inc., San Francisco, CA. More information available from US FCC via Universal Licensing System and Coast Guard Vessel Documentation Center.

Last reported at 2017-Feb-28 16:33 UTC. Time now 2017-Feb-28 17:26 UTC.
Position N 47°38' W 122°23'.

MMSI: 233246442.

Date/timePositionNaut miles runAvg speedWind from/ knotsBaromVisibWave heightAir tempDewpointWater temp
2017-Feb-28 16:33N 47°38' W 122°23'0 0.0
2017-Feb-28 15:33N 47°38' W 122°23'0 0.0
2017-Feb-28 14:33N 47°38' W 122°23'0 0.0
2017-Feb-28 13:33N 47°38' W 122°23'0 0.3
2017-Feb-28 12:33N 47°38' W 122°23'9 8.8
2017-Feb-28 11:33N 47°46' W 122°27'1211.6
2017-Feb-28 10:33N 47°57' W 122°33'1612.6
2017-Feb-28 09:16N 48°10' W 122°47'1411.4
2017-Feb-28 08:03N 48°24' W 122°45'612.9
2017-Feb-28 07:34N 48°30' W 122°45'1312.6
2017-Feb-28 06:33N 48°43' W 122°45'8 6.9
2017-Feb-28 05:28N 48°50' W 122°43'2 1.7
2017-Feb-28 04:32N 48°49' W 122°44'1 0.1
2017-Feb-27 23:33N 48°48' W 122°43'4 1.9
2017-Feb-27 21:32N 48°52' W 122°46'2 2.1
2017-Feb-27 20:33N 48°50' W 122°45'9 8.6
2017-Feb-27 19:33N 48°41' W 122°42'7 7.0
2017-Feb-27 18:33N 48°43' W 122°32'2 0.3
2017-Feb-27 10:22N 48°45' W 122°30'8 9.3
2017-Feb-27 09:31N 48°37' W 122°34'7 6.9
2017-Feb-27 08:32N 48°31' W 122°35'1 0.5
2017-Feb-27 07:31N 48°31' W 122°35'1 0.4
2017-Feb-27 05:22N 48°31' W 122°37'0 0.0
2017-Feb-27 04:28N 48°31' W 122°37'0 0.0
2017-Feb-27 03:33N 48°31' W 122°37'0 0.0
2017-Feb-27 02:33N 48°31' W 122°37'0 0.0
2017-Feb-27 01:33N 48°31' W 122°37'0 0.0
2017-Feb-27 00:33N 48°31' W 122°37'0 0.0
2017-Feb-26 23:33N 48°31' W 122°37'0 0.0
2017-Feb-26 22:33N 48°31' W 122°37'0 0.0
2017-Feb-26 21:33N 48°31' W 122°37'0 0.0
2017-Feb-26 20:33N 48°31' W 122°37'0 0.0
2017-Feb-26 19:33N 48°31' W 122°37'0 0.0
2017-Feb-26 18:34N 48°31' W 122°37'0 0.0
2017-Feb-26 17:33N 48°31' W 122°37'0 0.0
2017-Feb-26 16:10N 48°31' W 122°37'0 0.0
2017-Feb-26 15:28N 48°31' W 122°37'2 0.8
2017-Feb-26 13:14N 48°31' W 122°34'2 3.3
2017-Feb-26 12:33N 48°31' W 122°37'20 9.7
2017-Feb-26 10:28N 48°12' W 122°46'15 7.5
2017-Feb-26 08:31N 47°59' W 122°35'9 9.0
2017-Feb-26 07:34N 47°52' W 122°28'1010.4
2017-Feb-26 06:33N 47°42' W 122°27'5 4.7
2017-Feb-26 05:33N 47°38' W 122°23'0 0.0
2017-Feb-26 04:33N 47°38' W 122°23'0 0.0
2017-Feb-26 03:33N 47°38' W 122°23'1110.8
2017-Feb-26 02:33N 47°27' W 122°23'10 9.9
2017-Feb-26 01:31N 47°17' W 122°27'2 2.6
2017-Feb-26 00:33N 47°16' W 122°23'2 1.9
2017-Feb-25 23:18N 47°17' W 122°26'0 0.1
2017-Feb-25 20:15N 47°18' W 122°26'3 4.1
2017-Feb-25 19:32N 47°16' W 122°23'2 1.7
2017-Feb-25 18:07N 47°17' W 122°26'1 1.1
2017-Feb-25 17:33N 47°17' W 122°27'1010.1
2017-Feb-25 16:33N 47°27' W 122°23'1010.5
2017-Feb-25 15:33N 47°37' W 122°23'0 0.4
2017-Feb-25 14:33N 47°37' W 122°22'3 2.6
2017-Feb-25 13:33N 47°35' W 122°21'2 2.1
2017-Feb-25 12:33N 47°37' W 122°22'1110.9
2017-Feb-25 11:33N 47°26' W 122°23'10 1.9
2017-Feb-25 06:33N 47°17' W 122°25'1 0.6
2017-Feb-25 05:31N 47°17' W 122°26'1 0.4
2017-Feb-25 02:33N 47°16' W 122°26'2 0.8
2017-Feb-25 00:32N 47°17' W 122°25'1 0.7
2017-Feb-24 23:03N 47°17' W 122°26'1 1.5
2017-Feb-24 22:32N 47°16' W 122°27'1 0.7
2017-Feb-24 21:33N 47°17' W 122°27'1 0.8
2017-Feb-24 20:33N 47°16' W 122°26'0 0.3
2017-Feb-24 19:33N 47°16' W 122°26'0 0.0
2017-Feb-24 13:15N 47°16' W 122°26'0 0.0
2017-Feb-24 12:33N 47°16' W 122°26'0 0.0
2017-Feb-24 11:33N 47°16' W 122°26'0 0.0
2017-Feb-24 07:03N 47°16' W 122°26'1 1.4
2017-Feb-24 06:31N 47°16' W 122°25'1 1.3
2017-Feb-24 05:33N 47°17' W 122°26'1 0.6
2017-Feb-24 03:33N 47°17' W 122°25'2 1.7
2017-Feb-24 02:32N 47°15' W 122°23'1 0.9
2017-Feb-24 01:25N 47°16' W 122°24'3 3.1
2017-Feb-24 00:34N 47°18' W 122°27'4 3.7
2017-Feb-23 23:33N 47°15' W 122°23'3 2.8
2017-Feb-23 22:33N 47°17' W 122°26'0 0.4
2017-Feb-23 21:33N 47°18' W 122°26'4 3.5
2017-Feb-23 20:34N 47°21' W 122°25'10 9.8
2017-Feb-23 19:34N 47°31' W 122°24'7 7.0
2017-Feb-23 18:32N 47°38' W 122°23'0 0.0
2017-Feb-23 17:33N 47°38' W 122°23'0 0.0
2017-Feb-23 16:33N 47°38' W 122°23'0 0.0
2017-Feb-23 15:33N 47°38' W 122°23'0 0.0
2017-Feb-23 14:32N 47°38' W 122°23'3 2.6
2017-Feb-23 13:33N 47°36' W 122°21'0 0.4
2017-Feb-23 12:33N 47°36' W 122°21'1 0.6
2017-Feb-23 11:34N 47°36' W 122°21'1 0.7
2017-Feb-23 10:33N 47°35' W 122°21'1 0.8
2017-Feb-23 09:33N 47°36' W 122°21'3 2.7
2017-Feb-23 08:33N 47°38' W 122°23'0 0.0
2017-Feb-23 07:32N 47°38' W 122°23'0 0.0
2017-Feb-23 06:33N 47°38' W 122°23'0 0.0
2017-Feb-23 05:33N 47°38' W 122°23'0 0.0
2017-Feb-23 04:33N 47°38' W 122°23'0 0.0
2017-Feb-23 03:33N 47°38' W 122°23'0 0.0
2017-Feb-23 02:34N 47°38' W 122°23'0 0.0
2017-Feb-23 01:33N 47°38' W 122°23'0 0.0
2017-Feb-23 00:33N 47°38' W 122°23'1 0.6
2017-Feb-22 23:33N 47°37' W 122°22'0 0.3
2017-Feb-22 22:33N 47°37' W 122°23'0 0.4
2017-Feb-22 21:33N 47°37' W 122°22'1 0.6
2017-Feb-22 20:33N 47°38' W 122°23'0 0.0
2017-Feb-22 19:33N 47°38' W 122°23'0 0.1
2017-Feb-22 18:31N 47°38' W 122°23'0 0.0
2017-Feb-22 17:32N 47°38' W 122°23'0 0.0
2017-Feb-22 16:31N 47°38' W 122°23'0 0.0
2017-Feb-22 15:32N 47°38' W 122°23'0 0.0
2017-Feb-22 14:31N 47°38' W 122°23'0 0.0
2017-Feb-22 13:32N 47°38' W 122°23'3 2.7
2017-Feb-22 12:33N 47°36' W 122°21'1 0.8
2017-Feb-22 11:33N 47°35' W 122°21'0 0.1
2017-Feb-22 10:33N 47°35' W 122°21'1 0.5
2017-Feb-22 09:33N 47°35' W 122°21'0 0.3
2017-Feb-22 08:33N 47°36' W 122°21'3 2.6
2017-Feb-22 07:33N 47°38' W 122°23'0 0.0
2017-Feb-22 06:30N 47°38' W 122°23'0 0.0
2017-Feb-22 05:33N 47°38' W 122°23'0 0.0
2017-Feb-22 04:33N 47°38' W 122°23'0 0.0
2017-Feb-22 03:33N 47°38' W 122°23'0 0.0
2017-Feb-22 02:33N 47°38' W 122°23'0 0.0
2017-Feb-22 01:33N 47°38' W 122°23'0 0.0
2017-Feb-22 00:33N 47°38' W 122°23'0 0.0
2017-Feb-21 23:33N 47°38' W 122°23'0 0.0
2017-Feb-21 22:33N 47°38' W 122°23'0 0.0
2017-Feb-21 21:33N 47°38' W 122°23'0 0.0
2017-Feb-21 20:33N 47°38' W 122°23'0 0.0
2017-Feb-21 19:33N 47°38' W 122°23'3 2.8
2017-Feb-21 18:32N 47°35' W 122°21'0 0.0
2017-Feb-21 17:32N 47°35' W 122°21'0 0.0
2017-Feb-21 16:34N 47°35' W 122°21'3 2.7
2017-Feb-21 15:32N 47°38' W 122°23'0 0.0
2017-Feb-21 14:32N 47°38' W 122°23'0 0.0
2017-Feb-21 13:31N 47°38' W 122°23'0 0.0
2017-Feb-21 12:32N 47°38' W 122°23'0 0.0
2017-Feb-21 11:31N 47°38' W 122°23'0 0.0
2017-Feb-21 10:31N 47°38' W 122°23'0 0.0
2017-Feb-21 09:32N 47°38' W 122°23'0 0.0
2017-Feb-21 08:31N 47°38' W 122°23'0 0.0
2017-Feb-21 07:32N 47°38' W 122°23'0 0.0
2017-Feb-21 06:31N 47°38' W 122°23'0 0.0
2017-Feb-21 05:31N 47°38' W 122°23'0 0.0
2017-Feb-21 04:31N 47°38' W 122°23'0 0.0
2017-Feb-21 03:32N 47°38' W 122°23'0 0.0
2017-Feb-21 02:31N 47°38' W 122°23'0 0.0
2017-Feb-21 01:32N 47°38' W 122°23'1 0.6
2017-Feb-21 00:33N 47°37' W 122°23'1 0.5
2017-Feb-20 23:33N 47°38' W 122°23'0 0.0
2017-Feb-20 22:31N 47°38' W 122°23'0 0.0
2017-Feb-20 21:34N 47°38' W 122°23'7 6.5
2017-Feb-20 20:34N 47°32' W 122°26'1110.6
2017-Feb-20 19:33N 47°21' W 122°23'5 5.4
2017-Feb-20 18:34N 47°16' W 122°23'0 0.1
2017-Feb-20 17:26N 47°16' W 122°23'2 1.9
2017-Feb-20 16:32N 47°16' W 122°26'0 0.0
2017-Feb-20 15:23N 47°16' W 122°26'0 0.0
2017-Feb-20 14:32N 47°16' W 122°26'0 0.0
2017-Feb-20 13:32N 47°16' W 122°26'0 0.0
2017-Feb-20 12:32N 47°16' W 122°26'0 0.0
2017-Feb-20 11:32N 47°16' W 122°26'0 0.0
2017-Feb-20 10:32N 47°16' W 122°26'0 0.0
2017-Feb-20 09:29N 47°16' W 122°26'0 0.0
2017-Feb-20 08:32N 47°16' W 122°26'0 0.0
2017-Feb-20 07:33N 47°16' W 122°26'1 1.1
2017-Feb-20 06:26N 47°17' W 122°25'1 1.3
2017-Feb-20 05:32N 47°16' W 122°26'1 0.6
2017-Feb-20 03:29N 47°17' W 122°25'1 0.9
2017-Feb-20 02:05N 47°16' W 122°26'4 8.2
2017-Feb-20 01:33N 47°20' W 122°27'9 9.0
2017-Feb-20 00:33N 47°29' W 122°24'7 6.8
2017-Feb-19 23:33N 47°35' W 122°21'0 0.4
2017-Feb-19 22:33N 47°36' W 122°21'2 1.9
2017-Feb-19 21:34N 47°37' W 122°23'1 0.8
2017-Feb-19 20:33N 47°38' W 122°23'0 0.0
2017-Feb-19 19:33N 47°38' W 122°23'0 0.0
2017-Feb-19 18:33N 47°38' W 122°23'0 0.2
2017-Feb-19 17:34N 47°38' W 122°23'1110.9
2017-Feb-19 16:33N 47°28' W 122°31'1010.2
2017-Feb-19 15:33N 47°18' W 122°29'3 2.9
2017-Feb-19 14:30N 47°16' W 122°26'0 0.0
2017-Feb-19 13:33N 47°16' W 122°26'2 1.6
2017-Feb-19 12:30N 47°16' W 122°23'0 0.1
2017-Feb-19 11:30N 47°16' W 122°24'0 0.2
2017-Feb-19 10:33N 47°16' W 122°23'2 1.5
2017-Feb-19 09:21N 47°16' W 122°26'0 0.0
2017-Feb-19 08:03N 47°16' W 122°26'0 0.0
2017-Feb-19 07:08N 47°16' W 122°26'0 0.0
2017-Feb-19 06:33N 47°16' W 122°26'0 0.0
2017-Feb-19 05:33N 47°16' W 122°26'0 0.0
2017-Feb-19 04:32N 47°16' W 122°26'0 0.0
2017-Feb-19 03:31N 47°16' W 122°26'0 0.0
2017-Feb-19 02:33N 47°16' W 122°26'0 0.0
2017-Feb-19 01:22N 47°16' W 122°26'2 2.2
2017-Feb-19 00:25N 47°16' W 122°23'2 1.9
2017-Feb-18 23:33N 47°17' W 122°25'2 1.5
2017-Feb-18 22:33N 47°18' W 122°26'8 7.5
2017-Feb-18 21:33N 47°25' W 122°23'1111.2
2017-Feb-18 20:33N 47°36' W 122°25'3 2.7
2017-Feb-18 19:32N 47°35' W 122°21'2 1.6
2017-Feb-18 18:33N 47°36' W 122°22'3 3.3
2017-Feb-18 17:31N 47°33' W 122°20'1 1.0
2017-Feb-18 16:33N 47°34' W 122°21'  
Track history (hours):
 
Tides and Currents Weather Stations Pressure Air Temp Water Temp Dewpoint Dewpoint Depression Visibility Wind Speed Wind Dir Waves Ship Positions

Delta Lindsey

Owner: Baydelta Navigation, Inc., San Francisco, CA. More information available from US FCC via Universal Licensing System and Coast Guard Vessel Documentation Center.

Last reported at 2017-Feb-28 16:33 UTC. Time now 2017-Feb-28 17:26 UTC.
Position N 47°38' W 122°23'.

MMSI: 233246442.

Date/timePositionNaut miles runAvg speedWind from/ knotsBaromVisibWave heightAir tempDewpointWater temp
2017-Feb-28 16:33N 47°38' W 122°23'0 0.0
2017-Feb-28 15:33N 47°38' W 122°23'0 0.0
2017-Feb-28 14:33N 47°38' W 122°23'0 0.0
2017-Feb-28 13:33N 47°38' W 122°23'0 0.3
2017-Feb-28 12:33N 47°38' W 122°23'9 8.8
2017-Feb-28 11:33N 47°46' W 122°27'1211.6
2017-Feb-28 10:33N 47°57' W 122°33'1612.6
2017-Feb-28 09:16N 48°10' W 122°47'1411.4
2017-Feb-28 08:03N 48°24' W 122°45'612.9
2017-Feb-28 07:34N 48°30' W 122°45'1312.6
2017-Feb-28 06:33N 48°43' W 122°45'8 6.9
2017-Feb-28 05:28N 48°50' W 122°43'2 1.7
2017-Feb-28 04:32N 48°49' W 122°44'1 0.1
2017-Feb-27 23:33N 48°48' W 122°43'4 1.9
2017-Feb-27 21:32N 48°52' W 122°46'2 2.1
2017-Feb-27 20:33N 48°50' W 122°45'9 8.6
2017-Feb-27 19:33N 48°41' W 122°42'7 7.0
2017-Feb-27 18:33N 48°43' W 122°32'2 0.3
2017-Feb-27 10:22N 48°45' W 122°30'8 9.3
2017-Feb-27 09:31N 48°37' W 122°34'7 6.9
2017-Feb-27 08:32N 48°31' W 122°35'1 0.5
2017-Feb-27 07:31N 48°31' W 122°35'1 0.4
2017-Feb-27 05:22N 48°31' W 122°37'0 0.0
2017-Feb-27 04:28N 48°31' W 122°37'0 0.0
2017-Feb-27 03:33N 48°31' W 122°37'0 0.0
2017-Feb-27 02:33N 48°31' W 122°37'0 0.0
2017-Feb-27 01:33N 48°31' W 122°37'0 0.0
2017-Feb-27 00:33N 48°31' W 122°37'0 0.0
2017-Feb-26 23:33N 48°31' W 122°37'0 0.0
2017-Feb-26 22:33N 48°31' W 122°37'0 0.0
2017-Feb-26 21:33N 48°31' W 122°37'0 0.0
2017-Feb-26 20:33N 48°31' W 122°37'0 0.0
2017-Feb-26 19:33N 48°31' W 122°37'0 0.0
2017-Feb-26 18:34N 48°31' W 122°37'0 0.0
2017-Feb-26 17:33N 48°31' W 122°37'0 0.0
2017-Feb-26 16:10N 48°31' W 122°37'0 0.0
2017-Feb-26 15:28N 48°31' W 122°37'2 0.8
2017-Feb-26 13:14N 48°31' W 122°34'2 3.3
2017-Feb-26 12:33N 48°31' W 122°37'20 9.7
2017-Feb-26 10:28N 48°12' W 122°46'15 7.5
2017-Feb-26 08:31N 47°59' W 122°35'9 9.0
2017-Feb-26 07:34N 47°52' W 122°28'1010.4
2017-Feb-26 06:33N 47°42' W 122°27'5 4.7
2017-Feb-26 05:33N 47°38' W 122°23'0 0.0
2017-Feb-26 04:33N 47°38' W 122°23'0 0.0
2017-Feb-26 03:33N 47°38' W 122°23'1110.8
2017-Feb-26 02:33N 47°27' W 122°23'10 9.9
2017-Feb-26 01:31N 47°17' W 122°27'2 2.6
2017-Feb-26 00:33N 47°16' W 122°23'2 1.9
2017-Feb-25 23:18N 47°17' W 122°26'0 0.1
2017-Feb-25 20:15N 47°18' W 122°26'3 4.1
2017-Feb-25 19:32N 47°16' W 122°23'2 1.7
2017-Feb-25 18:07N 47°17' W 122°26'1 1.1
2017-Feb-25 17:33N 47°17' W 122°27'1010.1
2017-Feb-25 16:33N 47°27' W 122°23'1010.5
2017-Feb-25 15:33N 47°37' W 122°23'0 0.4
2017-Feb-25 14:33N 47°37' W 122°22'3 2.6
2017-Feb-25 13:33N 47°35' W 122°21'2 2.1
2017-Feb-25 12:33N 47°37' W 122°22'1110.9
2017-Feb-25 11:33N 47°26' W 122°23'10 1.9
2017-Feb-25 06:33N 47°17' W 122°25'1 0.6
2017-Feb-25 05:31N 47°17' W 122°26'1 0.4
2017-Feb-25 02:33N 47°16' W 122°26'2 0.8
2017-Feb-25 00:32N 47°17' W 122°25'1 0.7
2017-Feb-24 23:03N 47°17' W 122°26'1 1.5
2017-Feb-24 22:32N 47°16' W 122°27'1 0.7
2017-Feb-24 21:33N 47°17' W 122°27'1 0.8
2017-Feb-24 20:33N 47°16' W 122°26'0 0.3
2017-Feb-24 19:33N 47°16' W 122°26'0 0.0
2017-Feb-24 13:15N 47°16' W 122°26'0 0.0
2017-Feb-24 12:33N 47°16' W 122°26'0 0.0
2017-Feb-24 11:33N 47°16' W 122°26'0 0.0
2017-Feb-24 07:03N 47°16' W 122°26'1 1.4
2017-Feb-24 06:31N 47°16' W 122°25'1 1.3
2017-Feb-24 05:33N 47°17' W 122°26'1 0.6
2017-Feb-24 03:33N 47°17' W 122°25'2 1.7
2017-Feb-24 02:32N 47°15' W 122°23'1 0.9
2017-Feb-24 01:25N 47°16' W 122°24'3 3.1
2017-Feb-24 00:34N 47°18' W 122°27'4 3.7
2017-Feb-23 23:33N 47°15' W 122°23'3 2.8
2017-Feb-23 22:33N 47°17' W 122°26'0 0.4
2017-Feb-23 21:33N 47°18' W 122°26'4 3.5
2017-Feb-23 20:34N 47°21' W 122°25'10 9.8
2017-Feb-23 19:34N 47°31' W 122°24'7 7.0
2017-Feb-23 18:32N 47°38' W 122°23'0 0.0
2017-Feb-23 17:33N 47°38' W 122°23'0 0.0
2017-Feb-23 16:33N 47°38' W 122°23'0 0.0
2017-Feb-23 15:33N 47°38' W 122°23'0 0.0
2017-Feb-23 14:32N 47°38' W 122°23'3 2.6
2017-Feb-23 13:33N 47°36' W 122°21'0 0.4
2017-Feb-23 12:33N 47°36' W 122°21'1 0.6
2017-Feb-23 11:34N 47°36' W 122°21'1 0.7
2017-Feb-23 10:33N 47°35' W 122°21'1 0.8
2017-Feb-23 09:33N 47°36' W 122°21'3 2.7
2017-Feb-23 08:33N 47°38' W 122°23'0 0.0
2017-Feb-23 07:32N 47°38' W 122°23'0 0.0
2017-Feb-23 06:33N 47°38' W 122°23'0 0.0
2017-Feb-23 05:33N 47°38' W 122°23'0 0.0
2017-Feb-23 04:33N 47°38' W 122°23'0 0.0
2017-Feb-23 03:33N 47°38' W 122°23'0 0.0
2017-Feb-23 02:34N 47°38' W 122°23'0 0.0
2017-Feb-23 01:33N 47°38' W 122°23'0 0.0
2017-Feb-23 00:33N 47°38' W 122°23'1 0.6
2017-Feb-22 23:33N 47°37' W 122°22'0 0.3
2017-Feb-22 22:33N 47°37' W 122°23'0 0.4
2017-Feb-22 21:33N 47°37' W 122°22'1 0.6
2017-Feb-22 20:33N 47°38' W 122°23'0 0.0
2017-Feb-22 19:33N 47°38' W 122°23'0 0.1
2017-Feb-22 18:31N 47°38' W 122°23'0 0.0
2017-Feb-22 17:32N 47°38' W 122°23'0 0.0
2017-Feb-22 16:31N 47°38' W 122°23'0 0.0
2017-Feb-22 15:32N 47°38' W 122°23'0 0.0
2017-Feb-22 14:31N 47°38' W 122°23'0 0.0
2017-Feb-22 13:32N 47°38' W 122°23'3 2.7
2017-Feb-22 12:33N 47°36' W 122°21'1 0.8
2017-Feb-22 11:33N 47°35' W 122°21'0 0.1
2017-Feb-22 10:33N 47°35' W 122°21'1 0.5
2017-Feb-22 09:33N 47°35' W 122°21'0 0.3
2017-Feb-22 08:33N 47°36' W 122°21'3 2.6
2017-Feb-22 07:33N 47°38' W 122°23'0 0.0
2017-Feb-22 06:30N 47°38' W 122°23'0 0.0
2017-Feb-22 05:33N 47°38' W 122°23'0 0.0
2017-Feb-22 04:33N 47°38' W 122°23'0 0.0
2017-Feb-22 03:33N 47°38' W 122°23'0 0.0
2017-Feb-22 02:33N 47°38' W 122°23'0 0.0
2017-Feb-22 01:33N 47°38' W 122°23'0 0.0
2017-Feb-22 00:33N 47°38' W 122°23'0 0.0
2017-Feb-21 23:33N 47°38' W 122°23'0 0.0
2017-Feb-21 22:33N 47°38' W 122°23'0 0.0
2017-Feb-21 21:33N 47°38' W 122°23'0 0.0
2017-Feb-21 20:33N 47°38' W 122°23'0 0.0
2017-Feb-21 19:33N 47°38' W 122°23'3 2.8
2017-Feb-21 18:32N 47°35' W 122°21'0 0.0
2017-Feb-21 17:32N 47°35' W 122°21'0 0.0
2017-Feb-21 16:34N 47°35' W 122°21'3 2.7
2017-Feb-21 15:32N 47°38' W 122°23'0 0.0
2017-Feb-21 14:32N 47°38' W 122°23'0 0.0
2017-Feb-21 13:31N 47°38' W 122°23'0 0.0
2017-Feb-21 12:32N 47°38' W 122°23'0 0.0
2017-Feb-21 11:31N 47°38' W 122°23'0 0.0
2017-Feb-21 10:31N 47°38' W 122°23'0 0.0
2017-Feb-21 09:32N 47°38' W 122°23'0 0.0
2017-Feb-21 08:31N 47°38' W 122°23'0 0.0
2017-Feb-21 07:32N 47°38' W 122°23'0 0.0
2017-Feb-21 06:31N 47°38' W 122°23'0 0.0
2017-Feb-21 05:31N 47°38' W 122°23'0 0.0
2017-Feb-21 04:31N 47°38' W 122°23'0 0.0
2017-Feb-21 03:32N 47°38' W 122°23'0 0.0
2017-Feb-21 02:31N 47°38' W 122°23'0 0.0
2017-Feb-21 01:32N 47°38' W 122°23'1 0.6
2017-Feb-21 00:33N 47°37' W 122°23'1 0.5
2017-Feb-20 23:33N 47°38' W 122°23'0 0.0
2017-Feb-20 22:31N 47°38' W 122°23'0 0.0
2017-Feb-20 21:34N 47°38' W 122°23'7 6.5
2017-Feb-20 20:34N 47°32' W 122°26'1110.6
2017-Feb-20 19:33N 47°21' W 122°23'5 5.4
2017-Feb-20 18:34N 47°16' W 122°23'0 0.1
2017-Feb-20 17:26N 47°16' W 122°23'2 1.9
2017-Feb-20 16:32N 47°16' W 122°26'0 0.0
2017-Feb-20 15:23N 47°16' W 122°26'0 0.0
2017-Feb-20 14:32N 47°16' W 122°26'0 0.0
2017-Feb-20 13:32N 47°16' W 122°26'0 0.0
2017-Feb-20 12:32N 47°16' W 122°26'0 0.0
2017-Feb-20 11:32N 47°16' W 122°26'0 0.0
2017-Feb-20 10:32N 47°16' W 122°26'0 0.0
2017-Feb-20 09:29N 47°16' W 122°26'0 0.0
2017-Feb-20 08:32N 47°16' W 122°26'0 0.0
2017-Feb-20 07:33N 47°16' W 122°26'1 1.1
2017-Feb-20 06:26N 47°17' W 122°25'1 1.3
2017-Feb-20 05:32N 47°16' W 122°26'1 0.6
2017-Feb-20 03:29N 47°17' W 122°25'1 0.9
2017-Feb-20 02:05N 47°16' W 122°26'4 8.2
2017-Feb-20 01:33N 47°20' W 122°27'9 9.0
2017-Feb-20 00:33N 47°29' W 122°24'7 6.8
2017-Feb-19 23:33N 47°35' W 122°21'0 0.4
2017-Feb-19 22:33N 47°36' W 122°21'2 1.9
2017-Feb-19 21:34N 47°37' W 122°23'1 0.8
2017-Feb-19 20:33N 47°38' W 122°23'0 0.0
2017-Feb-19 19:33N 47°38' W 122°23'0 0.0
2017-Feb-19 18:33N 47°38' W 122°23'0 0.2
2017-Feb-19 17:34N 47°38' W 122°23'1110.9
2017-Feb-19 16:33N 47°28' W 122°31'1010.2
2017-Feb-19 15:33N 47°18' W 122°29'3 2.9
2017-Feb-19 14:30N 47°16' W 122°26'0 0.0
2017-Feb-19 13:33N 47°16' W 122°26'2 1.6
2017-Feb-19 12:30N 47°16' W 122°23'0 0.1
2017-Feb-19 11:30N 47°16' W 122°24'0 0.2
2017-Feb-19 10:33N 47°16' W 122°23'2 1.5
2017-Feb-19 09:21N 47°16' W 122°26'0 0.0
2017-Feb-19 08:03N 47°16' W 122°26'0 0.0
2017-Feb-19 07:08N 47°16' W 122°26'0 0.0
2017-Feb-19 06:33N 47°16' W 122°26'0 0.0
2017-Feb-19 05:33N 47°16' W 122°26'0 0.0
2017-Feb-19 04:32N 47°16' W 122°26'0 0.0
2017-Feb-19 03:31N 47°16' W 122°26'0 0.0
2017-Feb-19 02:33N 47°16' W 122°26'0 0.0
2017-Feb-19 01:22N 47°16' W 122°26'2 2.2
2017-Feb-19 00:25N 47°16' W 122°23'2 1.9
2017-Feb-18 23:33N 47°17' W 122°25'2 1.5
2017-Feb-18 22:33N 47°18' W 122°26'8 7.5
2017-Feb-18 21:33N 47°25' W 122°23'1111.2
2017-Feb-18 20:33N 47°36' W 122°25'3 2.7
2017-Feb-18 19:32N 47°35' W 122°21'2 1.6
2017-Feb-18 18:33N 47°36' W 122°22'3 3.3
2017-Feb-18 17:31N 47°33' W 122°20'1 1.0
2017-Feb-18 16:33N 47°34' W 122°21'  

Dump ship's entire track history